Terminal Aerodrome Forecast
Issued by NWS Rapid City, SD

Home | Current Version | Previous Version | Text Only | Print | Product List | Glossary Off
Versions: 1 2 3 4 5 6 7 8 9 10 11 12 13 14 15

000
FTUS43 KUNR 201724
TAFRAP
TAF
KRAP 201724Z 2018/2118 01013G23KT P6SM SCT025
     FM210100 07007KT P6SM SCT200
     FM210500 10006KT P6SM BKN150
     FM210900 11005KT 2SM BR OVC007
     FM211500 13010KT P6SM BKN015=

USA.gov is the U.S. government's official web portal to all federal, state and local government web resources and services.